sensor_id;sensor_type;location;lat;lon;timestamp;P1;durP1;ratioP1;P2;durP2;ratioP2
78834;SDS011;68187;42.682;23.352;2023-05-07T00:01:30;14.57;;;9.18;;
78834;SDS011;68187;42.682;23.352;2023-05-07T00:03:57;14.73;;;9.27;;
78834;SDS011;68187;42.682;23.352;2023-05-07T00:06:23;16.38;;;10.75;;
78834;SDS011;68187;42.682;23.352;2023-05-07T00:08:51;14.75;;;11.07;;
78834;SDS011;68187;42.682;23.352;2023-05-07T00:11:18;13.68;;;10.35;;
78834;SDS011;68187;42.682;23.352;2023-05-07T00:13:45;14.77;;;11.75;;
78834;SDS011;68187;42.682;23.352;2023-05-07T00:16:12;14.30;;;10.00;;
78834;SDS011;68187;42.682;23.352;2023-05-07T00:18:40;17.17;;;10.73;;
78834;SDS011;68187;42.682;23.352;2023-05-07T00:21:06;17.95;;;12.38;;
78834;SDS011;68187;42.682;23.352;2023-05-07T00:23:33;19.00;;;12.30;;
78834;SDS011;68187;42.682;23.352;2023-05-07T00:26:00;16.67;;;11.50;;
78834;SDS011;68187;42.682;23.352;2023-05-07T00:28:26;14.65;;;10.77;;
78834;SDS011;68187;42.682;23.352;2023-05-07T00:30:53;16.95;;;10.95;;
78834;SDS011;68187;42.682;23.352;2023-05-07T00:33:20;14.43;;;9.90;;
78834;SDS011;68187;42.682;23.352;2023-05-07T00:35:48;14.98;;;10.85;;
78834;SDS011;68187;42.682;23.352;2023-05-07T00:38:15;19.38;;;12.85;;
78834;SDS011;68187;42.682;23.352;2023-05-07T00:40:41;14.68;;;10.15;;
78834;SDS011;68187;42.682;23.352;2023-05-07T00:43:08;15.63;;;11.02;;
78834;SDS011;68187;42.682;23.352;2023-05-07T00:45:35;17.30;;;10.30;;
78834;SDS011;68187;42.682;23.352;2023-05-07T00:48:02;16.83;;;11.50;;
78834;SDS011;68187;42.682;23.352;2023-05-07T00:50:29;16.90;;;11.35;;
78834;SDS011;68187;42.682;23.352;2023-05-07T00:52:58;17.17;;;10.63;;
78834;SDS011;68187;42.682;23.352;2023-05-07T00:55:26;16.70;;;11.90;;
78834;SDS011;68187;42.682;23.352;2023-05-07T00:57:53;17.02;;;12.15;;
78834;SDS011;68187;42.682;23.352;2023-05-07T01:00:19;14.50;;;11.13;;
78834;SDS011;68187;42.682;23.352;2023-05-07T01:02:46;16.05;;;11.35;;
78834;SDS011;68187;42.682;23.352;2023-05-07T01:05:14;18.58;;;12.73;;
78834;SDS011;68187;42.682;23.352;2023-05-07T01:07:43;14.00;;;9.23;;
78834;SDS011;68187;42.682;23.352;2023-05-07T01:10:12;16.05;;;11.27;;
78834;SDS011;68187;42.682;23.352;2023-05-07T01:12:39;16.48;;;11.43;;
78834;SDS011;68187;42.682;23.352;2023-05-07T01:15:07;16.33;;;10.00;;
78834;SDS011;68187;42.682;23.352;2023-05-07T01:17:35;16.63;;;10.45;;
78834;SDS011;68187;42.682;23.352;2023-05-07T01:20:04;16.25;;;9.93;;
78834;SDS011;68187;42.682;23.352;2023-05-07T01:22:33;14.65;;;10.75;;
78834;SDS011;68187;42.682;23.352;2023-05-07T01:25:01;15.38;;;9.38;;
78834;SDS011;68187;42.682;23.352;2023-05-07T01:27:29;14.05;;;9.85;;
78834;SDS011;68187;42.682;23.352;2023-05-07T01:29:55;11.52;;;7.75;;
78834;SDS011;68187;42.682;23.352;2023-05-07T01:32:23;11.15;;;7.75;;
78834;SDS011;68187;42.682;23.352;2023-05-07T01:34:55;12.20;;;10.35;;
78834;SDS011;68187;42.682;23.352;2023-05-07T01:37:24;16.15;;;9.23;;
78834;SDS011;68187;42.682;23.352;2023-05-07T01:39:53;13.10;;;8.85;;
78834;SDS011;68187;42.682;23.352;2023-05-07T01:42:20;12.00;;;9.70;;
78834;SDS011;68187;42.682;23.352;2023-05-07T01:44:48;10.48;;;8.15;;
78834;SDS011;68187;42.682;23.352;2023-05-07T01:47:15;10.85;;;7.38;;
78834;SDS011;68187;42.682;23.352;2023-05-07T01:49:43;12.40;;;8.55;;
78834;SDS011;68187;42.682;23.352;2023-05-07T01:52:10;11.85;;;6.47;;
78834;SDS011;68187;42.682;23.352;2023-05-07T01:54:37;13.15;;;8.77;;
78834;SDS011;68187;42.682;23.352;2023-05-07T01:57:05;9.77;;;6.80;;
78834;SDS011;68187;42.682;23.352;2023-05-07T01:59:32;11.40;;;8.07;;
78834;SDS011;68187;42.682;23.352;2023-05-07T02:01:59;9.30;;;6.80;;
78834;SDS011;68187;42.682;23.352;2023-05-07T02:04:25;10.02;;;6.22;;
78834;SDS011;68187;42.682;23.352;2023-05-07T02:06:52;8.60;;;5.75;;
78834;SDS011;68187;42.682;23.352;2023-05-07T02:09:19;9.20;;;7.38;;
78834;SDS011;68187;42.682;23.352;2023-05-07T02:11:45;9.80;;;7.13;;
78834;SDS011;68187;42.682;23.352;2023-05-07T02:14:13;12.00;;;6.45;;
78834;SDS011;68187;42.682;23.352;2023-05-07T02:16:40;11.68;;;8.57;;
78834;SDS011;68187;42.682;23.352;2023-05-07T02:19:07;11.70;;;7.88;;
78834;SDS011;68187;42.682;23.352;2023-05-07T02:21:33;9.65;;;6.10;;
78834;SDS011;68187;42.682;23.352;2023-05-07T02:24:00;10.10;;;8.30;;
78834;SDS011;68187;42.682;23.352;2023-05-07T02:26:27;11.55;;;7.55;;
78834;SDS011;68187;42.682;23.352;2023-05-07T02:28:53;11.75;;;9.23;;
78834;SDS011;68187;42.682;23.352;2023-05-07T02:31:21;12.00;;;7.97;;
78834;SDS011;68187;42.682;23.352;2023-05-07T02:33:48;10.82;;;7.90;;
78834;SDS011;68187;42.682;23.352;2023-05-07T02:36:15;12.10;;;8.02;;
78834;SDS011;68187;42.682;23.352;2023-05-07T02:38:41;14.48;;;8.93;;
78834;SDS011;68187;42.682;23.352;2023-05-07T02:41:08;13.13;;;9.25;;
78834;SDS011;68187;42.682;23.352;2023-05-07T02:43:36;11.35;;;9.18;;
78834;SDS011;68187;42.682;23.352;2023-05-07T02:46:03;10.43;;;8.27;;
78834;SDS011;68187;42.682;23.352;2023-05-07T02:48:31;11.85;;;9.32;;
78834;SDS011;68187;42.682;23.352;2023-05-07T02:50:58;13.43;;;9.50;;
78834;SDS011;68187;42.682;23.352;2023-05-07T02:53:25;13.63;;;10.43;;
78834;SDS011;68187;42.682;23.352;2023-05-07T02:55:52;13.88;;;10.60;;
78834;SDS011;68187;42.682;23.352;2023-05-07T02:58:19;13.85;;;10.35;;
78834;SDS011;68187;42.682;23.352;2023-05-07T03:00:46;13.20;;;9.38;;
78834;SDS011;68187;42.682;23.352;2023-05-07T03:03:12;15.27;;;11.93;;
78834;SDS011;68187;42.682;23.352;2023-05-07T03:05:41;15.43;;;10.82;;
78834;SDS011;68187;42.682;23.352;2023-05-07T03:08:08;14.77;;;11.15;;
78834;SDS011;68187;42.682;23.352;2023-05-07T03:10:35;18.63;;;12.02;;
78834;SDS011;68187;42.682;23.352;2023-05-07T03:13:01;15.95;;;10.50;;
78834;SDS011;68187;42.682;23.352;2023-05-07T03:15:29;16.73;;;10.65;;
78834;SDS011;68187;42.682;23.352;2023-05-07T03:17:55;13.77;;;10.02;;
78834;SDS011;68187;42.682;23.352;2023-05-07T03:20:22;14.38;;;9.85;;
78834;SDS011;68187;42.682;23.352;2023-05-07T03:22:50;12.88;;;10.13;;
78834;SDS011;68187;42.682;23.352;2023-05-07T03:25:17;16.95;;;10.85;;
78834;SDS011;68187;42.682;23.352;2023-05-07T03:27:43;14.35;;;10.05;;
78834;SDS011;68187;42.682;23.352;2023-05-07T03:30:11;17.05;;;10.50;;
78834;SDS011;68187;42.682;23.352;2023-05-07T03:32:38;14.25;;;9.95;;
78834;SDS011;68187;42.682;23.352;2023-05-07T03:35:05;14.73;;;11.00;;
78834;SDS011;68187;42.682;23.352;2023-05-07T03:37:32;15.30;;;10.07;;
78834;SDS011;68187;42.682;23.352;2023-05-07T03:40:00;13.48;;;10.15;;
78834;SDS011;68187;42.682;23.352;2023-05-07T03:42:27;14.25;;;9.23;;
78834;SDS011;68187;42.682;23.352;2023-05-07T03:44:54;13.73;;;11.00;;
78834;SDS011;68187;42.682;23.352;2023-05-07T03:47:21;15.85;;;10.32;;
78834;SDS011;68187;42.682;23.352;2023-05-07T03:49:48;15.18;;;9.55;;
78834;SDS011;68187;42.682;23.352;2023-05-07T03:52:15;14.68;;;10.20;;
78834;SDS011;68187;42.682;23.352;2023-05-07T03:54:47;15.10;;;10.23;;
78834;SDS011;68187;42.682;23.352;2023-05-07T03:57:15;14.13;;;11.80;;
78834;SDS011;68187;42.682;23.352;2023-05-07T03:59:42;13.65;;;10.35;;
78834;SDS011;68187;42.682;23.352;2023-05-07T04:02:08;15.57;;;11.73;;
78834;SDS011;68187;42.682;23.352;2023-05-07T04:04:35;16.33;;;11.30;;
78834;SDS011;68187;42.682;23.352;2023-05-07T04:07:02;13.40;;;10.27;;
78834;SDS011;68187;42.682;23.352;2023-05-07T04:09:29;16.80;;;11.55;;
78834;SDS011;68187;42.682;23.352;2023-05-07T04:11:56;14.63;;;10.43;;
78834;SDS011;68187;42.682;23.352;2023-05-07T04:14:24;15.20;;;11.25;;
78834;SDS011;68187;42.682;23.352;2023-05-07T04:16:50;14.07;;;10.55;;
78834;SDS011;68187;42.682;23.352;2023-05-07T04:19:17;14.27;;;9.98;;
78834;SDS011;68187;42.682;23.352;2023-05-07T04:21:44;17.80;;;10.30;;
78834;SDS011;68187;42.682;23.352;2023-05-07T04:24:10;17.38;;;11.98;;
78834;SDS011;68187;42.682;23.352;2023-05-07T04:26:37;16.35;;;11.50;;
78834;SDS011;68187;42.682;23.352;2023-05-07T04:29:04;15.27;;;11.32;;
78834;SDS011;68187;42.682;23.352;2023-05-07T04:31:32;16.45;;;10.55;;
78834;SDS011;68187;42.682;23.352;2023-05-07T04:33:59;15.57;;;11.15;;
78834;SDS011;68187;42.682;23.352;2023-05-07T04:36:26;18.48;;;11.48;;
78834;SDS011;68187;42.682;23.352;2023-05-07T04:38:54;12.85;;;9.93;;
78834;SDS011;68187;42.682;23.352;2023-05-07T04:41:20;17.55;;;10.20;;
78834;SDS011;68187;42.682;23.352;2023-05-07T04:43:47;13.85;;;10.55;;
78834;SDS011;68187;42.682;23.352;2023-05-07T04:46:14;14.73;;;10.90;;
78834;SDS011;68187;42.682;23.352;2023-05-07T04:48:42;14.38;;;10.07;;
78834;SDS011;68187;42.682;23.352;2023-05-07T04:51:09;15.80;;;11.20;;
78834;SDS011;68187;42.682;23.352;2023-05-07T04:53:36;18.23;;;11.80;;
78834;SDS011;68187;42.682;23.352;2023-05-07T04:56:03;18.50;;;11.32;;
78834;SDS011;68187;42.682;23.352;2023-05-07T04:58:30;15.60;;;11.05;;
78834;SDS011;68187;42.682;23.352;2023-05-07T05:00:57;17.45;;;11.95;;
78834;SDS011;68187;42.682;23.352;2023-05-07T05:03:23;19.63;;;10.18;;
78834;SDS011;68187;42.682;23.352;2023-05-07T05:05:52;15.63;;;11.18;;
78834;SDS011;68187;42.682;23.352;2023-05-07T05:08:18;14.50;;;9.18;;
78834;SDS011;68187;42.682;23.352;2023-05-07T05:10:45;15.25;;;11.05;;
78834;SDS011;68187;42.682;23.352;2023-05-07T05:13:13;15.85;;;11.30;;
78834;SDS011;68187;42.682;23.352;2023-05-07T05:15:40;14.77;;;11.27;;
78834;SDS011;68187;42.682;23.352;2023-05-07T05:18:10;16.55;;;11.75;;
78834;SDS011;68187;42.682;23.352;2023-05-07T05:20:36;15.77;;;11.65;;
78834;SDS011;68187;42.682;23.352;2023-05-07T05:23:04;17.85;;;11.63;;
78834;SDS011;68187;42.682;23.352;2023-05-07T05:25:31;17.50;;;11.13;;
78834;SDS011;68187;42.682;23.352;2023-05-07T05:27:58;17.55;;;12.38;;
78834;SDS011;68187;42.682;23.352;2023-05-07T05:30:24;15.60;;;12.10;;
78834;SDS011;68187;42.682;23.352;2023-05-07T05:32:51;15.32;;;11.73;;
78834;SDS011;68187;42.682;23.352;2023-05-07T05:35:18;18.17;;;9.93;;
78834;SDS011;68187;42.682;23.352;2023-05-07T05:37:44;14.95;;;10.02;;
78834;SDS011;68187;42.682;23.352;2023-05-07T05:40:13;14.48;;;10.25;;
78834;SDS011;68187;42.682;23.352;2023-05-07T05:42:39;15.95;;;10.13;;
78834;SDS011;68187;42.682;23.352;2023-05-07T05:45:07;18.50;;;9.57;;
78834;SDS011;68187;42.682;23.352;2023-05-07T05:47:34;15.85;;;10.25;;
78834;SDS011;68187;42.682;23.352;2023-05-07T05:50:01;16.25;;;10.75;;
78834;SDS011;68187;42.682;23.352;2023-05-07T05:52:28;17.02;;;10.55;;
78834;SDS011;68187;42.682;23.352;2023-05-07T05:54:55;15.80;;;11.07;;
78834;SDS011;68187;42.682;23.352;2023-05-07T05:57:23;17.45;;;10.25;;
78834;SDS011;68187;42.682;23.352;2023-05-07T05:59:50;18.38;;;11.68;;
78834;SDS011;68187;42.682;23.352;2023-05-07T06:02:17;14.13;;;10.50;;
78834;SDS011;68187;42.682;23.352;2023-05-07T06:04:43;12.93;;;10.18;;
78834;SDS011;68187;42.682;23.352;2023-05-07T06:07:10;17.13;;;11.48;;
78834;SDS011;68187;42.682;23.352;2023-05-07T06:09:37;16.80;;;11.07;;
78834;SDS011;68187;42.682;23.352;2023-05-07T06:12:03;15.18;;;9.43;;
78834;SDS011;68187;42.682;23.352;2023-05-07T06:14:32;14.80;;;10.02;;
78834;SDS011;68187;42.682;23.352;2023-05-07T06:16:59;14.07;;;8.73;;
78834;SDS011;68187;42.682;23.352;2023-05-07T06:19:25;16.65;;;11.07;;
78834;SDS011;68187;42.682;23.352;2023-05-07T06:21:53;14.38;;;10.73;;
78834;SDS011;68187;42.682;23.352;2023-05-07T06:24:21;16.40;;;11.38;;
78834;SDS011;68187;42.682;23.352;2023-05-07T06:26:48;16.27;;;10.98;;
78834;SDS011;68187;42.682;23.352;2023-05-07T06:29:14;15.20;;;9.57;;
78834;SDS011;68187;42.682;23.352;2023-05-07T06:31:42;19.02;;;12.07;;
78834;SDS011;68187;42.682;23.352;2023-05-07T06:34:09;14.63;;;8.60;;
78834;SDS011;68187;42.682;23.352;2023-05-07T06:36:39;12.75;;;9.88;;
78834;SDS011;68187;42.682;23.352;2023-05-07T06:39:06;15.32;;;10.38;;
78834;SDS011;68187;42.682;23.352;2023-05-07T06:41:32;14.23;;;9.00;;
78834;SDS011;68187;42.682;23.352;2023-05-07T06:43:59;14.77;;;9.90;;
78834;SDS011;68187;42.682;23.352;2023-05-07T06:46:26;14.73;;;8.68;;
78834;SDS011;68187;42.682;23.352;2023-05-07T06:48:55;13.70;;;9.07;;
78834;SDS011;68187;42.682;23.352;2023-05-07T06:51:22;14.32;;;9.48;;
78834;SDS011;68187;42.682;23.352;2023-05-07T06:53:49;14.48;;;10.30;;
78834;SDS011;68187;42.682;23.352;2023-05-07T06:56:16;12.68;;;8.45;;
78834;SDS011;68187;42.682;23.352;2023-05-07T06:58:42;14.95;;;8.88;;
78834;SDS011;68187;42.682;23.352;2023-05-07T07:01:09;15.88;;;9.75;;
78834;SDS011;68187;42.682;23.352;2023-05-07T07:03:36;14.60;;;10.00;;
78834;SDS011;68187;42.682;23.352;2023-05-07T07:06:04;22.50;;;11.32;;
78834;SDS011;68187;42.682;23.352;2023-05-07T07:08:31;17.17;;;11.88;;
78834;SDS011;68187;42.682;23.352;2023-05-07T07:10:58;15.88;;;11.30;;
78834;SDS011;68187;42.682;23.352;2023-05-07T07:13:24;15.68;;;11.25;;
78834;SDS011;68187;42.682;23.352;2023-05-07T07:15:51;17.48;;;12.35;;
78834;SDS011;68187;42.682;23.352;2023-05-07T07:18:18;17.73;;;12.73;;
78834;SDS011;68187;42.682;23.352;2023-05-07T07:20:45;15.45;;;10.93;;
78834;SDS011;68187;42.682;23.352;2023-05-07T07:23:13;14.90;;;8.75;;
78834;SDS011;68187;42.682;23.352;2023-05-07T07:25:40;15.57;;;10.50;;
78834;SDS011;68187;42.682;23.352;2023-05-07T07:28:06;17.42;;;11.10;;
78834;SDS011;68187;42.682;23.352;2023-05-07T07:30:33;14.98;;;10.70;;
78834;SDS011;68187;42.682;23.352;2023-05-07T07:33:00;16.27;;;11.02;;
78834;SDS011;68187;42.682;23.352;2023-05-07T07:35:28;13.00;;;10.02;;
78834;SDS011;68187;42.682;23.352;2023-05-07T07:37:55;12.98;;;10.25;;
78834;SDS011;68187;42.682;23.352;2023-05-07T07:40:23;16.38;;;11.63;;
78834;SDS011;68187;42.682;23.352;2023-05-07T07:42:50;17.05;;;11.48;;
78834;SDS011;68187;42.682;23.352;2023-05-07T07:45:17;14.68;;;9.75;;
78834;SDS011;68187;42.682;23.352;2023-05-07T07:47:44;14.82;;;10.18;;
78834;SDS011;68187;42.682;23.352;2023-05-07T07:50:11;16.40;;;10.80;;
78834;SDS011;68187;42.682;23.352;2023-05-07T07:52:37;15.45;;;9.85;;
78834;SDS011;68187;42.682;23.352;2023-05-07T07:55:05;15.60;;;10.02;;
78834;SDS011;68187;42.682;23.352;2023-05-07T07:57:34;17.27;;;10.93;;
78834;SDS011;68187;42.682;23.352;2023-05-07T08:00:00;15.10;;;10.50;;
78834;SDS011;68187;42.682;23.352;2023-05-07T08:02:27;12.10;;;9.77;;
78834;SDS011;68187;42.682;23.352;2023-05-07T08:04:54;13.38;;;8.88;;
78834;SDS011;68187;42.682;23.352;2023-05-07T08:07:20;14.60;;;9.07;;
78834;SDS011;68187;42.682;23.352;2023-05-07T08:09:47;16.40;;;9.20;;
78834;SDS011;68187;42.682;23.352;2023-05-07T08:12:14;14.43;;;8.27;;
78834;SDS011;68187;42.682;23.352;2023-05-07T08:14:42;14.13;;;8.13;;
78834;SDS011;68187;42.682;23.352;2023-05-07T08:17:09;12.55;;;8.18;;
78834;SDS011;68187;42.682;23.352;2023-05-07T08:19:36;13.90;;;7.78;;
78834;SDS011;68187;42.682;23.352;2023-05-07T08:22:03;14.90;;;7.82;;
78834;SDS011;68187;42.682;23.352;2023-05-07T08:24:30;13.32;;;7.93;;
78834;SDS011;68187;42.682;23.352;2023-05-07T08:26:57;14.25;;;8.75;;
78834;SDS011;68187;42.682;23.352;2023-05-07T08:29:24;11.50;;;7.95;;
78834;SDS011;68187;42.682;23.352;2023-05-07T08:31:52;14.13;;;9.73;;
78834;SDS011;68187;42.682;23.352;2023-05-07T08:34:19;14.60;;;8.68;;
78834;SDS011;68187;42.682;23.352;2023-05-07T08:36:45;14.45;;;8.68;;
78834;SDS011;68187;42.682;23.352;2023-05-07T08:39:13;14.05;;;7.63;;
78834;SDS011;68187;42.682;23.352;2023-05-07T08:41:42;16.08;;;10.18;;
78834;SDS011;68187;42.682;23.352;2023-05-07T08:44:11;10.60;;;8.77;;
78834;SDS011;68187;42.682;23.352;2023-05-07T08:46:40;15.07;;;7.95;;
78834;SDS011;68187;42.682;23.352;2023-05-07T08:49:09;10.57;;;7.45;;
78834;SDS011;68187;42.682;23.352;2023-05-07T08:51:36;10.38;;;7.82;;
78834;SDS011;68187;42.682;23.352;2023-05-07T08:54:03;11.20;;;6.18;;
78834;SDS011;68187;42.682;23.352;2023-05-07T08:56:32;11.13;;;4.85;;
78834;SDS011;68187;42.682;23.352;2023-05-07T08:58:59;8.57;;;5.20;;
78834;SDS011;68187;42.682;23.352;2023-05-07T09:01:25;7.97;;;6.63;;
78834;SDS011;68187;42.682;23.352;2023-05-07T09:03:52;9.38;;;5.45;;
78834;SDS011;68187;42.682;23.352;2023-05-07T09:06:21;8.90;;;6.72;;
78834;SDS011;68187;42.682;23.352;2023-05-07T09:08:51;12.07;;;6.63;;
78834;SDS011;68187;42.682;23.352;2023-05-07T09:11:22;10.50;;;6.80;;
78834;SDS011;68187;42.682;23.352;2023-05-07T09:13:49;9.93;;;5.88;;
78834;SDS011;68187;42.682;23.352;2023-05-07T09:16:20;10.32;;;5.38;;
78834;SDS011;68187;42.682;23.352;2023-05-07T09:18:48;11.48;;;5.68;;
78834;SDS011;68187;42.682;23.352;2023-05-07T09:21:18;8.32;;;5.65;;
78834;SDS011;68187;42.682;23.352;2023-05-07T09:23:46;9.18;;;4.32;;
78834;SDS011;68187;42.682;23.352;2023-05-07T09:26:14;12.23;;;6.78;;
78834;SDS011;68187;42.682;23.352;2023-05-07T09:28:41;8.05;;;4.13;;
78834;SDS011;68187;42.682;23.352;2023-05-07T09:31:08;8.95;;;6.07;;
78834;SDS011;68187;42.682;23.352;2023-05-07T09:33:35;8.75;;;5.30;;
78834;SDS011;68187;42.682;23.352;2023-05-07T09:36:03;9.98;;;4.80;;
78834;SDS011;68187;42.682;23.352;2023-05-07T09:38:31;10.18;;;5.70;;
78834;SDS011;68187;42.682;23.352;2023-05-07T09:41:03;9.77;;;5.32;;
78834;SDS011;68187;42.682;23.352;2023-05-07T09:43:33;7.82;;;4.50;;
78834;SDS011;68187;42.682;23.352;2023-05-07T09:46:06;10.52;;;4.60;;
78834;SDS011;68187;42.682;23.352;2023-05-07T09:48:38;7.35;;;4.53;;
78834;SDS011;68187;42.682;23.352;2023-05-07T09:51:08;7.57;;;4.53;;
78834;SDS011;68187;42.682;23.352;2023-05-07T09:56:30;8.10;;;4.60;;
78834;SDS011;68187;42.682;23.352;2023-05-07T09:58:57;9.20;;;4.60;;
78834;SDS011;68187;42.682;23.352;2023-05-07T10:01:26;8.48;;;4.25;;
78834;SDS011;68187;42.682;23.352;2023-05-07T10:03:53;7.88;;;4.18;;
78834;SDS011;68187;42.682;23.352;2023-05-07T10:06:24;9.77;;;4.13;;
78834;SDS011;68187;42.682;23.352;2023-05-07T10:08:51;8.32;;;4.10;;
78834;SDS011;68187;42.682;23.352;2023-05-07T10:11:19;6.20;;;3.38;;
78834;SDS011;68187;42.682;23.352;2023-05-07T10:13:49;6.30;;;5.05;;
78834;SDS011;68187;42.682;23.352;2023-05-07T10:16:18;6.40;;;3.47;;
78834;SDS011;68187;42.682;23.352;2023-05-07T10:18:46;6.97;;;3.40;;
78834;SDS011;68187;42.682;23.352;2023-05-07T10:21:15;5.30;;;3.17;;
78834;SDS011;68187;42.682;23.352;2023-05-07T10:23:44;6.13;;;3.53;;
78834;SDS011;68187;42.682;23.352;2023-05-07T10:26:12;6.00;;;3.50;;
78834;SDS011;68187;42.682;23.352;2023-05-07T10:28:42;5.32;;;4.03;;
78834;SDS011;68187;42.682;23.352;2023-05-07T10:31:18;5.38;;;2.60;;
78834;SDS011;68187;42.682;23.352;2023-05-07T10:34:02;5.40;;;3.78;;
78834;SDS011;68187;42.682;23.352;2023-05-07T10:36:36;7.47;;;4.35;;
78834;SDS011;68187;42.682;23.352;2023-05-07T10:39:04;4.95;;;2.70;;
78834;SDS011;68187;42.682;23.352;2023-05-07T10:41:32;7.65;;;3.42;;
78834;SDS011;68187;42.682;23.352;2023-05-07T10:43:59;6.35;;;3.40;;
78834;SDS011;68187;42.682;23.352;2023-05-07T10:46:28;7.38;;;4.20;;
78834;SDS011;68187;42.682;23.352;2023-05-07T10:49:08;8.20;;;3.55;;
78834;SDS011;68187;42.682;23.352;2023-05-07T10:51:36;7.40;;;3.15;;
78834;SDS011;68187;42.682;23.352;2023-05-07T10:54:19;6.47;;;3.72;;
78834;SDS011;68187;42.682;23.352;2023-05-07T10:56:47;7.65;;;4.75;;
78834;SDS011;68187;42.682;23.352;2023-05-07T10:59:34;7.30;;;4.65;;
78834;SDS011;68187;42.682;23.352;2023-05-07T11:02:08;6.75;;;4.53;;
78834;SDS011;68187;42.682;23.352;2023-05-07T11:04:36;6.03;;;2.90;;
78834;SDS011;68187;42.682;23.352;2023-05-07T11:09:59;6.85;;;4.32;;
78834;SDS011;68187;42.682;23.352;2023-05-07T11:12:49;7.88;;;4.35;;
78834;SDS011;68187;42.682;23.352;2023-05-07T11:15:36;7.30;;;4.47;;
78834;SDS011;68187;42.682;23.352;2023-05-07T11:18:06;6.38;;;4.80;;
78834;SDS011;68187;42.682;23.352;2023-05-07T11:20:49;7.22;;;3.97;;
78834;SDS011;68187;42.682;23.352;2023-05-07T11:26:22;7.55;;;4.55;;
78834;SDS011;68187;42.682;23.352;2023-05-07T11:28:50;5.47;;;3.95;;
78834;SDS011;68187;42.682;23.352;2023-05-07T11:31:20;6.95;;;4.03;;
78834;SDS011;68187;42.682;23.352;2023-05-07T11:33:49;6.80;;;3.50;;
78834;SDS011;68187;42.682;23.352;2023-05-07T11:36:17;5.55;;;3.60;;
78834;SDS011;68187;42.682;23.352;2023-05-07T11:38:44;7.95;;;3.20;;
78834;SDS011;68187;42.682;23.352;2023-05-07T11:41:11;4.90;;;3.42;;
78834;SDS011;68187;42.682;23.352;2023-05-07T11:43:40;5.07;;;3.22;;
78834;SDS011;68187;42.682;23.352;2023-05-07T11:46:21;7.75;;;3.95;;
78834;SDS011;68187;42.682;23.352;2023-05-07T11:48:47;8.68;;;3.42;;
78834;SDS011;68187;42.682;23.352;2023-05-07T11:51:18;5.95;;;4.05;;
78834;SDS011;68187;42.682;23.352;2023-05-07T11:53:46;9.25;;;3.70;;
78834;SDS011;68187;42.682;23.352;2023-05-07T11:56:13;7.65;;;3.75;;
78834;SDS011;68187;42.682;23.352;2023-05-07T11:58:41;7.68;;;4.78;;
78834;SDS011;68187;42.682;23.352;2023-05-07T12:01:09;5.68;;;3.42;;
78834;SDS011;68187;42.682;23.352;2023-05-07T12:03:37;6.45;;;2.97;;
78834;SDS011;68187;42.682;23.352;2023-05-07T12:06:09;7.90;;;4.03;;
78834;SDS011;68187;42.682;23.352;2023-05-07T12:08:36;7.70;;;3.65;;
78834;SDS011;68187;42.682;23.352;2023-05-07T12:11:04;6.45;;;3.67;;
78834;SDS011;68187;42.682;23.352;2023-05-07T12:13:33;7.93;;;3.78;;
78834;SDS011;68187;42.682;23.352;2023-05-07T12:16:00;6.60;;;4.18;;
78834;SDS011;68187;42.682;23.352;2023-05-07T12:18:28;5.10;;;2.88;;
78834;SDS011;68187;42.682;23.352;2023-05-07T12:20:56;6.18;;;3.83;;
78834;SDS011;68187;42.682;23.352;2023-05-07T12:23:24;6.25;;;4.03;;
78834;SDS011;68187;42.682;23.352;2023-05-07T12:25:51;5.90;;;3.80;;
78834;SDS011;68187;42.682;23.352;2023-05-07T12:28:19;5.85;;;3.40;;
78834;SDS011;68187;42.682;23.352;2023-05-07T12:30:46;9.00;;;3.97;;
78834;SDS011;68187;42.682;23.352;2023-05-07T12:33:16;8.38;;;4.05;;
78834;SDS011;68187;42.682;23.352;2023-05-07T12:35:43;6.57;;;3.53;;
78834;SDS011;68187;42.682;23.352;2023-05-07T12:38:11;5.85;;;3.78;;
78834;SDS011;68187;42.682;23.352;2023-05-07T12:40:40;5.45;;;3.85;;
78834;SDS011;68187;42.682;23.352;2023-05-07T12:43:14;8.23;;;3.75;;
78834;SDS011;68187;42.682;23.352;2023-05-07T12:45:42;6.68;;;3.90;;
78834;SDS011;68187;42.682;23.352;2023-05-07T12:48:10;6.05;;;3.00;;
78834;SDS011;68187;42.682;23.352;2023-05-07T12:50:37;4.63;;;2.40;;
78834;SDS011;68187;42.682;23.352;2023-05-07T12:53:03;4.93;;;2.45;;
78834;SDS011;68187;42.682;23.352;2023-05-07T12:55:31;5.55;;;2.60;;
78834;SDS011;68187;42.682;23.352;2023-05-07T12:58:00;7.32;;;2.28;;
78834;SDS011;68187;42.682;23.352;2023-05-07T13:00:34;4.55;;;3.03;;
78834;SDS011;68187;42.682;23.352;2023-05-07T13:03:01;5.65;;;3.28;;
78834;SDS011;68187;42.682;23.352;2023-05-07T13:05:28;6.43;;;2.22;;
78834;SDS011;68187;42.682;23.352;2023-05-07T13:07:55;4.80;;;2.85;;
78834;SDS011;68187;42.682;23.352;2023-05-07T13:10:23;6.18;;;2.47;;
78834;SDS011;68187;42.682;23.352;2023-05-07T13:12:50;7.80;;;3.25;;
78834;SDS011;68187;42.682;23.352;2023-05-07T13:15:19;5.60;;;2.17;;
78834;SDS011;68187;42.682;23.352;2023-05-07T13:17:46;4.43;;;2.15;;
78834;SDS011;68187;42.682;23.352;2023-05-07T13:20:12;5.47;;;2.40;;
78834;SDS011;68187;42.682;23.352;2023-05-07T13:22:40;5.00;;;3.00;;
78834;SDS011;68187;42.682;23.352;2023-05-07T13:25:07;5.80;;;2.47;;
78834;SDS011;68187;42.682;23.352;2023-05-07T13:27:34;5.38;;;3.28;;
78834;SDS011;68187;42.682;23.352;2023-05-07T13:30:02;6.57;;;3.38;;
78834;SDS011;68187;42.682;23.352;2023-05-07T13:32:31;4.30;;;2.65;;
78834;SDS011;68187;42.682;23.352;2023-05-07T13:34:58;7.13;;;3.08;;
78834;SDS011;68187;42.682;23.352;2023-05-07T13:37:24;4.63;;;2.92;;
78834;SDS011;68187;42.682;23.352;2023-05-07T13:39:51;5.20;;;3.40;;
78834;SDS011;68187;42.682;23.352;2023-05-07T13:42:18;4.97;;;2.92;;
78834;SDS011;68187;42.682;23.352;2023-05-07T13:44:44;5.60;;;2.70;;
78834;SDS011;68187;42.682;23.352;2023-05-07T13:47:11;5.13;;;3.40;;
78834;SDS011;68187;42.682;23.352;2023-05-07T13:49:39;5.25;;;2.28;;
78834;SDS011;68187;42.682;23.352;2023-05-07T13:52:06;4.43;;;2.90;;
78834;SDS011;68187;42.682;23.352;2023-05-07T13:54:32;6.47;;;3.30;;
78834;SDS011;68187;42.682;23.352;2023-05-07T13:56:59;5.93;;;2.78;;
78834;SDS011;68187;42.682;23.352;2023-05-07T13:59:26;4.88;;;2.42;;
78834;SDS011;68187;42.682;23.352;2023-05-07T14:01:53;5.82;;;3.17;;
78834;SDS011;68187;42.682;23.352;2023-05-07T14:04:20;5.50;;;2.58;;
78834;SDS011;68187;42.682;23.352;2023-05-07T14:06:48;6.75;;;2.88;;
78834;SDS011;68187;42.682;23.352;2023-05-07T14:09:15;7.43;;;3.03;;
78834;SDS011;68187;42.682;23.352;2023-05-07T14:11:42;4.82;;;3.10;;
78834;SDS011;68187;42.682;23.352;2023-05-07T14:14:08;5.10;;;2.85;;
78834;SDS011;68187;42.682;23.352;2023-05-07T14:16:36;5.75;;;2.50;;
78834;SDS011;68187;42.682;23.352;2023-05-07T14:19:03;5.25;;;2.72;;
78834;SDS011;68187;42.682;23.352;2023-05-07T14:21:30;5.15;;;2.88;;
78834;SDS011;68187;42.682;23.352;2023-05-07T14:23:58;6.22;;;2.75;;
78834;SDS011;68187;42.682;23.352;2023-05-07T14:26:26;6.45;;;3.17;;
78834;SDS011;68187;42.682;23.352;2023-05-07T14:28:53;6.15;;;2.90;;
78834;SDS011;68187;42.682;23.352;2023-05-07T14:31:22;6.05;;;2.47;;
78834;SDS011;68187;42.682;23.352;2023-05-07T14:33:49;5.35;;;2.78;;